createdAt,value
2017-10-13T00:00:59.529Z,1037.41
2017-10-13T00:01:59.520Z,1037.41
2017-10-13T00:02:59.511Z,1037.37
2017-10-13T00:03:59.500Z,1037.36
2017-10-13T00:04:59.492Z,1037.33
2017-10-13T00:05:59.486Z,1037.38
2017-10-13T00:06:59.472Z,1037.35
2017-10-13T00:07:59.462Z,1037.35
2017-10-13T00:08:59.454Z,1037.35
2017-10-13T00:09:59.446Z,1037.38
2017-10-13T00:10:59.436Z,1037.36
2017-10-13T00:11:59.432Z,1037.39
2017-10-13T00:12:59.417Z,1037.32
2017-10-13T00:13:59.407Z,1037.34
2017-10-13T00:14:59.400Z,1037.3
2017-10-13T00:15:59.393Z,1037.2
2017-10-13T00:16:59.382Z,1037.25
2017-10-13T00:17:59.371Z,1037.17
2017-10-13T00:18:59.363Z,1037.22
2017-10-13T00:19:59.353Z,1037.18
2017-10-13T00:20:59.344Z,1037.13
2017-10-13T00:21:59.334Z,1037.14
2017-10-13T00:22:59.325Z,1037.13
2017-10-13T00:23:59.317Z,1037.16
2017-10-13T00:24:59.308Z,1037.13
2017-10-13T00:25:59.300Z,1037.1
2017-10-13T00:26:59.289Z,1037.08
2017-10-13T00:27:59.287Z,1037.08
2017-10-13T00:28:59.269Z,1037.08
2017-10-13T00:29:59.261Z,1037.04
2017-10-13T00:30:59.254Z,1037.05
2017-10-13T00:31:59.246Z,1036.99
2017-10-13T00:32:59.236Z,1036.99
2017-10-13T00:33:59.226Z,1036.97
2017-10-13T00:34:59.217Z,1036.93
2017-10-13T00:35:59.207Z,1036.94
2017-10-13T00:36:59.198Z,1036.9
2017-10-13T00:37:59.190Z,1036.85
2017-10-13T00:38:59.181Z,1036.82
2017-10-13T00:39:59.172Z,1036.83
2017-10-13T00:40:59.164Z,1036.74
2017-10-13T00:41:59.155Z,1036.79
2017-10-13T00:42:59.149Z,1036.74
2017-10-13T00:43:59.139Z,1036.72
2017-10-13T00:44:59.130Z,1036.67
2017-10-13T00:45:59.123Z,1036.69
2017-10-13T00:46:59.111Z,1036.6
2017-10-13T00:47:59.104Z,1036.66
2017-10-13T00:48:59.095Z,1036.67
2017-10-13T00:49:59.087Z,1036.66
2017-10-13T00:50:59.077Z,1036.7
2017-10-13T00:51:59.069Z,1036.68
2017-10-13T00:52:59.062Z,1036.69
2017-10-13T00:53:59.053Z,1036.72
2017-10-13T00:54:59.046Z,1036.67
2017-10-13T00:55:59.034Z,1036.67
2017-10-13T00:56:59.026Z,1036.69
2017-10-13T00:57:59.020Z,1036.69
2017-10-13T00:58:59.010Z,1036.7
2017-10-13T00:59:59.002Z,1036.64
2017-10-13T01:00:58.994Z,1036.66
2017-10-13T01:01:58.985Z,1036.67
2017-10-13T01:02:58.976Z,1036.64
2017-10-13T01:03:58.966Z,1036.6
2017-10-13T01:04:58.957Z,1036.61
2017-10-13T01:05:58.949Z,1036.61
2017-10-13T01:06:58.942Z,1036.64
2017-10-13T01:07:58.934Z,1036.62
2017-10-13T01:08:58.924Z,1036.62
2017-10-13T01:09:58.924Z,1036.62
2017-10-13T01:10:58.913Z,1036.63
2017-10-13T01:11:58.900Z,1036.58
2017-10-13T01:12:58.889Z,1036.57
2017-10-13T01:13:58.881Z,1036.56
2017-10-13T01:14:58.875Z,1036.55
2017-10-13T01:15:58.865Z,1036.58
2017-10-13T01:16:58.859Z,1036.56
2017-10-13T01:17:58.850Z,1036.56
2017-10-13T01:18:58.844Z,1036.56
2017-10-13T01:19:58.831Z,1036.57
2017-10-13T01:20:58.824Z,1036.53
2017-10-13T01:21:58.815Z,1036.57
2017-10-13T01:22:58.809Z,1036.54
2017-10-13T01:23:58.799Z,1036.53
2017-10-13T01:24:58.791Z,1036.61
2017-10-13T01:25:58.782Z,1036.63
2017-10-13T01:26:58.772Z,1036.67
2017-10-13T01:27:58.765Z,1036.67
2017-10-13T01:28:58.756Z,1036.74
2017-10-13T01:29:58.750Z,1036.73
2017-10-13T01:30:58.739Z,1036.75
2017-10-13T01:31:58.732Z,1036.69
2017-10-13T01:32:58.722Z,1036.69
2017-10-13T01:33:58.715Z,1036.68
2017-10-13T01:34:58.708Z,1036.7
2017-10-13T01:35:58.700Z,1036.68
2017-10-13T01:36:58.690Z,1036.75
2017-10-13T01:37:58.896Z,1036.75
2017-10-13T01:38:58.673Z,1036.78
2017-10-13T01:39:58.665Z,1036.77
2017-10-13T01:40:58.657Z,1036.8
2017-10-13T01:41:58.651Z,1036.79
2017-10-13T01:42:58.642Z,1036.8
2017-10-13T01:43:58.634Z,1036.78
2017-10-13T01:44:58.625Z,1036.81
2017-10-13T01:45:58.616Z,1036.84
2017-10-13T01:46:58.608Z,1036.79
2017-10-13T01:47:58.599Z,1036.78
2017-10-13T01:48:58.591Z,1036.78
2017-10-13T01:49:58.583Z,1036.77
2017-10-13T01:50:58.576Z,1036.79
2017-10-13T01:51:58.568Z,1036.78
2017-10-13T01:52:58.559Z,1036.8
2017-10-13T01:53:58.561Z,1036.8
2017-10-13T01:54:58.542Z,1036.8
2017-10-13T01:55:58.535Z,1036.84
2017-10-13T01:56:58.826Z,1036.82
2017-10-13T01:57:58.516Z,1036.84
2017-10-13T01:58:58.509Z,1036.82
2017-10-13T01:59:58.500Z,1036.81
2017-10-13T02:00:58.492Z,1036.76
2017-10-13T02:01:58.484Z,1036.79
2017-10-13T02:02:58.477Z,1036.8
2017-10-13T02:03:58.468Z,1036.76
2017-10-13T02:04:58.459Z,1036.85
2017-10-13T02:05:58.451Z,1036.8
2017-10-13T02:06:58.442Z,1036.78
2017-10-13T02:07:58.433Z,1036.78
2017-10-13T02:08:58.427Z,1036.74
2017-10-13T02:09:58.419Z,1036.8
2017-10-13T02:10:58.411Z,1036.77
2017-10-13T02:11:58.401Z,1036.79
2017-10-13T02:12:58.395Z,1036.87
2017-10-13T02:13:58.387Z,1036.9
2017-10-13T02:14:58.376Z,1036.91
2017-10-13T02:15:58.369Z,1036.9
2017-10-13T02:16:58.360Z,1036.89
2017-10-13T02:17:58.353Z,1036.9
2017-10-13T02:18:58.347Z,1036.9
2017-10-13T02:19:58.338Z,1036.95
2017-10-13T02:20:58.329Z,1037.01
2017-10-13T02:21:58.319Z,1036.97
2017-10-13T02:22:58.614Z,1036.95
2017-10-13T02:23:58.306Z,1036.94
2017-10-13T02:24:58.297Z,1036.95
2017-10-13T02:25:58.288Z,1036.95
2017-10-13T02:26:58.280Z,1036.9
2017-10-13T02:27:58.272Z,1036.94
2017-10-13T02:28:58.263Z,1036.96
2017-10-13T02:29:58.254Z,1036.96
2017-10-13T02:30:58.251Z,1036.99
2017-10-13T02:31:58.240Z,1036.95
2017-10-13T02:32:58.232Z,1036.96
2017-10-13T02:33:58.223Z,1036.92
2017-10-13T02:34:58.216Z,1036.97
2017-10-13T02:35:58.206Z,1036.97
2017-10-13T02:36:58.197Z,1036.96
2017-10-13T02:37:58.189Z,1036.96
2017-10-13T02:38:58.183Z,1036.98
2017-10-13T02:39:58.175Z,1036.94
2017-10-13T02:40:58.169Z,1036.92
2017-10-13T02:41:58.158Z,1036.9
2017-10-13T02:42:58.150Z,1036.87
2017-10-13T02:43:58.139Z,1036.93
2017-10-13T02:44:58.131Z,1036.9
2017-10-13T02:45:58.125Z,1036.94
2017-10-13T02:46:58.116Z,1036.91
2017-10-13T02:47:58.107Z,1036.91
2017-10-13T02:48:58.099Z,1036.92
2017-10-13T02:49:58.092Z,1036.93
2017-10-13T02:50:58.084Z,1036.95
2017-10-13T02:51:58.076Z,1036.96
2017-10-13T02:52:58.067Z,1037.01
2017-10-13T02:53:58.061Z,1037
2017-10-13T02:54:58.051Z,1036.98
2017-10-13T02:55:58.043Z,1036.96
2017-10-13T02:56:58.040Z,1036.98
2017-10-13T02:57:58.026Z,1037.03
2017-10-13T02:58:58.019Z,1037.02
2017-10-13T02:59:58.011Z,1036.99
2017-10-13T03:00:58.004Z,1036.95
2017-10-13T03:01:57.994Z,1036.96
2017-10-13T03:02:57.985Z,1036.93
2017-10-13T03:03:57.977Z,1036.93
2017-10-13T03:04:57.970Z,1037.01
2017-10-13T03:05:57.961Z,1037.04
2017-10-13T03:06:57.954Z,1037.04
2017-10-13T03:07:57.947Z,1037.02
2017-10-13T03:08:57.938Z,1037.07
2017-10-13T03:09:57.929Z,1037.1
2017-10-13T03:10:57.920Z,1037.12
2017-10-13T03:11:57.913Z,1037.08
2017-10-13T03:12:57.905Z,1037.1
2017-10-13T03:13:57.897Z,1037.14
2017-10-13T03:14:57.888Z,1037.14
2017-10-13T03:15:57.879Z,1037.19
2017-10-13T03:16:57.871Z,1037.19
2017-10-13T03:17:57.863Z,1037.22
2017-10-13T03:18:57.856Z,1037.21
2017-10-13T03:19:57.849Z,1037.18
2017-10-13T03:20:57.840Z,1037.19
2017-10-13T03:21:57.832Z,1037.22
2017-10-13T03:22:57.822Z,1037.25
2017-10-13T03:23:57.813Z,1037.22
2017-10-13T03:24:57.809Z,1037.26
2017-10-13T03:25:57.801Z,1037.25
2017-10-13T03:26:57.796Z,1037.35
2017-10-13T03:27:57.784Z,1037.35
2017-10-13T03:28:57.774Z,1037.38
2017-10-13T03:29:57.766Z,1037.4
2017-10-13T03:30:57.760Z,1037.4
2017-10-13T03:31:57.748Z,1037.42
2017-10-13T03:32:57.739Z,1037.44
2017-10-13T03:33:57.733Z,1037.47
2017-10-13T03:34:57.724Z,1037.49
2017-10-13T03:35:57.716Z,1037.53
2017-10-13T03:36:57.709Z,1037.56
2017-10-13T03:37:57.700Z,1037.58
2017-10-13T03:38:57.692Z,1037.57
2017-10-13T03:39:57.684Z,1037.6
2017-10-13T03:40:57.677Z,1037.65
2017-10-13T03:41:57.667Z,1037.69
2017-10-13T03:42:57.658Z,1037.71
2017-10-13T03:43:57.649Z,1037.73
2017-10-13T03:44:57.641Z,1037.75
2017-10-13T03:45:57.632Z,1037.78
2017-10-13T03:46:57.625Z,1037.83
2017-10-13T03:47:57.617Z,1037.85
2017-10-13T03:48:57.614Z,1037.9
2017-10-13T03:49:57.599Z,1037.91
2017-10-13T03:50:57.589Z,1037.96
2017-10-13T03:51:57.581Z,1037.97
2017-10-13T03:52:57.573Z,1037.98
2017-10-13T03:53:57.564Z,1038.02
2017-10-13T03:54:57.557Z,1038.07
2017-10-13T03:55:57.549Z,1038.16
2017-10-13T03:56:57.541Z,1038.12
2017-10-13T03:57:57.533Z,1038.17
2017-10-13T03:58:57.524Z,1038.16
2017-10-13T03:59:57.515Z,1038.15
2017-10-13T04:00:57.505Z,1038.15
2017-10-13T04:01:57.505Z,1038.22
2017-10-13T04:02:57.490Z,1038.19
2017-10-13T04:03:57.483Z,1038.18
2017-10-13T04:04:57.470Z,1038.17
2017-10-13T04:05:57.463Z,1038.19
2017-10-13T04:06:57.454Z,1038.16
2017-10-13T04:07:57.445Z,1038.21
2017-10-13T04:08:57.438Z,1038.18
2017-10-13T04:09:57.429Z,1038.2
2017-10-13T04:10:57.418Z,1038.18
2017-10-13T04:11:57.409Z,1038.17
2017-10-13T04:12:57.399Z,1038.19
2017-10-13T04:13:57.392Z,1038.17
2017-10-13T04:14:57.384Z,1038.16
2017-10-13T04:15:57.375Z,1038.19
2017-10-13T04:16:57.365Z,1038.2
2017-10-13T04:17:57.357Z,1038.23
2017-10-13T04:18:57.347Z,1038.21
2017-10-13T04:19:57.338Z,1038.21
2017-10-13T04:20:57.331Z,1038.24
2017-10-13T04:21:57.320Z,1038.28
2017-10-13T04:22:57.312Z,1038.26
2017-10-13T04:23:57.304Z,1038.28
2017-10-13T04:24:57.295Z,1038.24
2017-10-13T04:25:57.284Z,1038.24
2017-10-13T04:26:57.275Z,1038.28
2017-10-13T04:27:57.266Z,1038.26
2017-10-13T04:28:57.259Z,1038.25
2017-10-13T04:29:57.250Z,1038.22
2017-10-13T04:30:57.239Z,1038.3
2017-10-13T04:31:57.231Z,1038.34
2017-10-13T04:32:57.523Z,1038.35
2017-10-13T04:33:57.213Z,1038.39
2017-10-13T04:34:57.205Z,1038.44
2017-10-13T04:35:57.196Z,1038.46
2017-10-13T04:36:57.186Z,1038.46
2017-10-13T04:37:57.177Z,1038.47
2017-10-13T04:38:57.168Z,1038.48
2017-10-13T04:39:57.159Z,1038.45
2017-10-13T04:40:57.149Z,1038.52
2017-10-13T04:41:57.140Z,1038.54
2017-10-13T04:42:57.133Z,1038.49
2017-10-13T04:43:57.123Z,1038.47
2017-10-13T04:44:57.114Z,1038.51
2017-10-13T04:45:57.104Z,1038.52
2017-10-13T04:46:57.095Z,1038.55
2017-10-13T04:47:57.085Z,1038.54
2017-10-13T04:48:57.077Z,1038.58
2017-10-13T04:49:57.067Z,1038.6
2017-10-13T04:50:57.060Z,1038.62
2017-10-13T04:51:57.049Z,1038.66
2017-10-13T04:52:57.041Z,1038.64
2017-10-13T04:53:57.033Z,1038.67
2017-10-13T04:54:57.024Z,1038.64
2017-10-13T04:55:57.012Z,1038.67
2017-10-13T04:56:57.006Z,1038.69
2017-10-13T04:57:56.995Z,1038.7
2017-10-13T04:58:57.236Z,1038.68
2017-10-13T04:59:56.975Z,1038.7
2017-10-13T05:00:56.967Z,1038.76
2017-10-13T05:01:56.959Z,1038.77
2017-10-13T05:02:56.950Z,1038.84
2017-10-13T05:03:56.940Z,1038.85
2017-10-13T05:04:56.932Z,1038.9
2017-10-13T05:05:56.929Z,1038.93
2017-10-13T05:06:56.917Z,1038.93
2017-10-13T05:07:56.903Z,1038.89
2017-10-13T05:08:56.892Z,1038.93
2017-10-13T05:09:56.883Z,1038.94
2017-10-13T05:10:56.877Z,1038.97
2017-10-13T05:11:56.867Z,1038.98
2017-10-13T05:12:56.856Z,1038.97
2017-10-13T05:13:56.848Z,1038.93
2017-10-13T05:14:56.836Z,1038.96
2017-10-13T05:15:56.828Z,1038.98
2017-10-13T05:16:56.818Z,1038.98
2017-10-13T05:17:56.809Z,1038.98
2017-10-13T05:18:56.800Z,1038.92
2017-10-13T05:19:56.790Z,1038.94
2017-10-13T05:20:56.781Z,1038.94
2017-10-13T05:21:56.772Z,1038.98
2017-10-13T05:22:56.763Z,1039.02
2017-10-13T05:23:56.753Z,1038.97
2017-10-13T05:24:56.746Z,1039.03
2017-10-13T05:25:56.734Z,1039.04
2017-10-13T05:26:56.725Z,1039.04
2017-10-13T05:27:56.716Z,1039.11
2017-10-13T05:28:56.706Z,1039.09
2017-10-13T05:29:56.947Z,1039.08
2017-10-13T05:30:56.689Z,1039.05
2017-10-13T05:31:56.679Z,1039.04
2017-10-13T05:32:56.668Z,1039.02
2017-10-13T05:33:56.660Z,1039.02
2017-10-13T05:34:56.650Z,1039.02
2017-10-13T05:35:56.640Z,1039.02
2017-10-13T05:36:56.630Z,1039.04
2017-10-13T05:37:56.622Z,1038.99
2017-10-13T05:38:56.613Z,1039.05
2017-10-13T05:39:56.603Z,1039.04
2017-10-13T05:40:56.597Z,1039.01
2017-10-13T05:41:56.586Z,1039.05
2017-10-13T05:42:56.574Z,1038.97
2017-10-13T05:43:56.565Z,1038.93
2017-10-13T05:44:56.555Z,1038.95
2017-10-13T05:45:56.548Z,1038.92
2017-10-13T05:46:56.536Z,1038.91
2017-10-13T05:47:56.527Z,1038.9
2017-10-13T05:48:56.518Z,1038.87
2017-10-13T05:49:56.508Z,1038.85
2017-10-13T05:50:56.499Z,1038.84
2017-10-13T05:51:56.492Z,1038.79
2017-10-13T05:52:56.482Z,1038.77
2017-10-13T05:53:56.473Z,1038.79
2017-10-13T05:54:56.462Z,1038.7
2017-10-13T05:55:56.453Z,1038.72
2017-10-13T05:56:56.444Z,1038.68
2017-10-13T05:57:56.433Z,1038.68
2017-10-13T05:58:56.427Z,1038.59
2017-10-13T05:59:56.418Z,1038.52
2017-10-13T06:00:56.657Z,1038.46
2017-10-13T06:01:56.400Z,1038.4
2017-10-13T06:02:56.389Z,1038.25
2017-10-13T06:03:56.380Z,1038.12
2017-10-13T06:04:56.371Z,1037.96
2017-10-13T06:05:56.366Z,1037.87
2017-10-13T06:06:56.355Z,1037.65
2017-10-13T06:07:56.347Z,1037.56
2017-10-13T06:08:56.337Z,1037.55
2017-10-13T06:09:56.329Z,1037.55
2017-10-13T06:10:56.320Z,1037.63
2017-10-13T06:11:56.313Z,1037.66
2017-10-13T06:12:56.305Z,1037.65
2017-10-13T06:13:56.296Z,1037.6
2017-10-13T06:14:56.291Z,1037.52
2017-10-13T06:15:56.278Z,1037.5
2017-10-13T06:16:56.274Z,1037.48
2017-10-13T06:17:56.263Z,1037.45
2017-10-13T06:18:56.258Z,1037.28
2017-10-13T06:19:56.248Z,1037.09
2017-10-13T06:20:56.241Z,1036.95
2017-10-13T06:21:56.234Z,1036.85
2017-10-13T06:22:56.226Z,1036.66
2017-10-13T06:23:56.217Z,1036.54
2017-10-13T06:24:56.210Z,1036.41
2017-10-13T06:25:56.202Z,1036.31
2017-10-13T06:26:56.195Z,1036.21
2017-10-13T06:27:56.189Z,1036.16
2017-10-13T06:28:56.182Z,1036.1
2017-10-13T06:29:56.175Z,1036.08
2017-10-13T06:30:56.166Z,1035.99
2017-10-13T06:31:56.161Z,1035.96
2017-10-13T06:32:56.157Z,1035.91
2017-10-13T06:33:56.149Z,1035.86
2017-10-13T06:34:56.141Z,1035.79
2017-10-13T06:35:56.337Z,1035.6
2017-10-13T06:36:56.128Z,1035.48
2017-10-13T06:37:56.121Z,1035.32
2017-10-13T06:38:56.118Z,1035.14
2017-10-13T06:39:56.111Z,1034.98
2017-10-13T06:40:56.104Z,1034.85
2017-10-13T06:41:56.100Z,1034.72
2017-10-13T06:42:56.093Z,1034.53
2017-10-13T06:43:56.087Z,1034.4
2017-10-13T06:44:56.082Z,1034.3
2017-10-13T06:45:56.078Z,1034.2
2017-10-13T06:46:56.072Z,1034.07
2017-10-13T06:47:56.068Z,1033.96
2017-10-13T06:48:56.067Z,1033.91
2017-10-13T06:49:56.059Z,1033.78
2017-10-13T06:50:56.052Z,1033.67
2017-10-13T06:51:56.050Z,1033.62
2017-10-13T06:52:56.044Z,1033.63
2017-10-13T06:53:56.042Z,1033.7
2017-10-13T06:54:56.036Z,1033.79
2017-10-13T06:55:56.031Z,1033.81
2017-10-13T06:56:56.027Z,1033.94
2017-10-13T06:57:56.025Z,1033.98
2017-10-13T06:58:56.019Z,1033.99
2017-10-13T06:59:56.015Z,1034.04
2017-10-13T07:00:56.013Z,1034.06
2017-10-13T07:01:56.007Z,1034.09
2017-10-13T07:02:56.003Z,1034.1
2017-10-13T07:03:56.000Z,1034.14
2017-10-13T07:04:56.004Z,1034.18
2017-10-13T07:05:55.993Z,1034.27
2017-10-13T07:06:55.988Z,1034.33
2017-10-13T07:07:55.985Z,1034.38
2017-10-13T07:08:55.983Z,1034.28
2017-10-13T07:09:55.980Z,1034.22
2017-10-13T07:10:55.974Z,1034.18
2017-10-13T07:11:55.970Z,1034.13
2017-10-13T07:12:55.966Z,1034.1
2017-10-13T07:13:55.963Z,1034.14
2017-10-13T07:14:55.961Z,1034.11
2017-10-13T07:15:55.956Z,1034.12
2017-10-13T07:16:55.953Z,1034.23
2017-10-13T07:17:55.948Z,1034.26
2017-10-13T07:18:55.944Z,1034.37
2017-10-13T07:19:55.939Z,1034.4
2017-10-13T07:20:55.936Z,1034.45
2017-10-13T07:21:55.932Z,1034.4
2017-10-13T07:22:55.930Z,1034.35
2017-10-13T07:23:55.929Z,1034.36
2017-10-13T07:24:55.921Z,1034.24
2017-10-13T07:25:55.918Z,1034.15
2017-10-13T07:26:55.913Z,1034.12
2017-10-13T07:27:55.909Z,1034.03
2017-10-13T07:28:55.907Z,1033.95
2017-10-13T07:29:55.902Z,1033.95
2017-10-13T07:30:55.898Z,1034
2017-10-13T07:31:55.896Z,1034.12
2017-10-13T07:32:55.890Z,1034.34
2017-10-13T07:33:55.887Z,1034.54
2017-10-13T07:34:55.886Z,1034.74
2017-10-13T07:35:55.879Z,1034.87
2017-10-13T07:36:55.877Z,1035.07
2017-10-13T07:37:55.874Z,1035.22
2017-10-13T07:38:55.868Z,1035.37
2017-10-13T07:39:55.863Z,1035.44
2017-10-13T07:40:55.860Z,1035.57
2017-10-13T07:41:55.857Z,1035.67
2017-10-13T07:42:55.855Z,1035.74
2017-10-13T07:43:55.849Z,1035.85
2017-10-13T07:44:55.844Z,1035.85
2017-10-13T07:45:55.843Z,1035.85
2017-10-13T07:46:55.836Z,1035.85
2017-10-13T07:47:55.829Z,1035.78
2017-10-13T07:48:55.826Z,1035.52
2017-10-13T07:49:55.822Z,1035.34
2017-10-13T07:50:55.817Z,1035.11
2017-10-13T07:51:55.814Z,1035.19
2017-10-13T07:52:55.809Z,1035.1
2017-10-13T07:53:55.804Z,1035.08
2017-10-13T07:54:55.800Z,1035.06
2017-10-13T07:55:55.794Z,1035.01
2017-10-13T07:56:55.790Z,1035
2017-10-13T07:57:55.786Z,1034.91
2017-10-13T07:58:55.783Z,1034.91
2017-10-13T07:59:55.779Z,1034.97
2017-10-13T08:00:55.776Z,1034.99
2017-10-13T08:01:55.770Z,1034.89
2017-10-13T08:02:55.765Z,1034.81
2017-10-13T08:03:55.761Z,1034.72
2017-10-13T08:04:55.757Z,1034.68
2017-10-13T08:05:55.752Z,1034.61
2017-10-13T08:06:55.750Z,1034.64
2017-10-13T08:07:55.746Z,1034.63
2017-10-13T08:08:55.742Z,1034.63
2017-10-13T08:09:55.737Z,1034.61
2017-10-13T08:10:55.734Z,1034.63
2017-10-13T08:11:55.730Z,1034.64
2017-10-13T08:12:55.723Z,1034.65
2017-10-13T08:13:55.721Z,1034.67
2017-10-13T08:14:55.717Z,1034.63
2017-10-13T08:15:55.713Z,1034.56
2017-10-13T08:16:55.711Z,1034.59
2017-10-13T08:17:55.705Z,1034.66
2017-10-13T08:18:55.702Z,1034.67
2017-10-13T08:19:55.701Z,1034.69
2017-10-13T08:20:55.694Z,1034.71
2017-10-13T08:21:55.692Z,1034.75
2017-10-13T08:22:55.687Z,1034.75
2017-10-13T08:23:55.688Z,1034.79
2017-10-13T08:24:55.680Z,1034.73
2017-10-13T08:25:55.675Z,1034.75
2017-10-13T08:26:55.673Z,1034.74
2017-10-13T08:27:55.672Z,1034.78
2017-10-13T08:28:55.665Z,1034.81
2017-10-13T08:29:55.662Z,1034.89
2017-10-13T08:30:55.657Z,1034.89
2017-10-13T08:31:55.653Z,1034.87
2017-10-13T08:32:55.650Z,1034.9
2017-10-13T08:33:55.647Z,1034.83
2017-10-13T08:34:55.645Z,1034.85
2017-10-13T08:35:55.641Z,1034.88
2017-10-13T08:36:55.637Z,1034.87
2017-10-13T08:37:55.635Z,1034.87
2017-10-13T08:38:55.630Z,1034.86
2017-10-13T08:39:55.627Z,1034.84
2017-10-13T08:40:55.624Z,1034.82
2017-10-13T08:41:55.619Z,1034.84
2017-10-13T08:42:55.616Z,1034.81
2017-10-13T08:43:55.613Z,1034.75
2017-10-13T08:44:55.609Z,1034.78
2017-10-13T08:45:55.603Z,1034.82
2017-10-13T08:46:55.601Z,1034.89
2017-10-13T08:47:55.601Z,1034.9
2017-10-13T08:48:55.594Z,1034.95
2017-10-13T08:49:55.591Z,1035
2017-10-13T08:50:55.596Z,1035.02
2017-10-13T08:51:55.589Z,1034.97
2017-10-13T08:52:55.579Z,1034.93
2017-10-13T08:53:55.574Z,1034.96
2017-10-13T08:54:55.573Z,1034.99
2017-10-13T08:55:55.569Z,1035.01
2017-10-13T08:56:55.566Z,1035.07
2017-10-13T08:57:55.562Z,1035.06
2017-10-13T08:58:55.557Z,1035.16
2017-10-13T08:59:55.557Z,1035.18
2017-10-13T09:00:55.552Z,1035.18
2017-10-13T09:01:55.548Z,1035.17
2017-10-13T09:02:55.544Z,1035.29
2017-10-13T09:03:55.539Z,1035.34
2017-10-13T09:04:55.535Z,1035.41
2017-10-13T09:05:55.531Z,1035.43
2017-10-13T09:06:55.527Z,1035.44
2017-10-13T09:07:55.523Z,1035.44
2017-10-13T09:08:55.521Z,1035.49
2017-10-13T09:09:55.515Z,1035.45
2017-10-13T09:10:55.510Z,1035.5
2017-10-13T09:11:55.509Z,1035.58
2017-10-13T09:12:55.504Z,1035.51
2017-10-13T09:13:55.500Z,1035.51
2017-10-13T09:14:55.497Z,1035.46
2017-10-13T09:15:55.494Z,1035.44
2017-10-13T09:16:55.489Z,1035.45
2017-10-13T09:17:55.485Z,1035.4
2017-10-13T09:18:55.480Z,1035.34
2017-10-13T09:19:55.476Z,1035.31
2017-10-13T09:20:55.472Z,1035.12
2017-10-13T09:21:55.476Z,1035.05
2017-10-13T09:22:55.464Z,1035.07
2017-10-13T09:23:55.462Z,1035.03
2017-10-13T09:24:55.458Z,1035.11
2017-10-13T09:25:55.454Z,1035.18
2017-10-13T09:26:55.650Z,1035.29
2017-10-13T09:27:55.445Z,1035.32
2017-10-13T09:28:55.441Z,1035.25
2017-10-13T09:29:55.439Z,1035.2
2017-10-13T09:30:55.434Z,1035.25
2017-10-13T09:31:55.436Z,1035.23
2017-10-13T09:32:55.427Z,1035.13
2017-10-13T09:33:55.423Z,1035.15
2017-10-13T09:34:55.420Z,1035.19
2017-10-13T09:35:55.416Z,1035.2
2017-10-13T09:36:55.416Z,1035.19
2017-10-13T09:37:55.408Z,1035.17
2017-10-13T09:38:55.403Z,1035.19
2017-10-13T09:39:55.400Z,1035.23
2017-10-13T09:40:55.598Z,1035.25
2017-10-13T09:41:55.391Z,1035.25
2017-10-13T09:42:55.389Z,1035.35
2017-10-13T09:43:55.388Z,1035.37
2017-10-13T09:44:55.382Z,1035.41
2017-10-13T09:45:55.378Z,1035.43
2017-10-13T09:46:55.373Z,1035.43
2017-10-13T09:47:55.368Z,1035.39
2017-10-13T09:48:55.364Z,1035.37
2017-10-13T09:49:55.361Z,1035.37
2017-10-13T09:50:55.359Z,1035.35
2017-10-13T09:51:55.355Z,1035.35
2017-10-13T09:52:55.351Z,1035.4
2017-10-13T09:53:55.347Z,1035.41
2017-10-13T09:54:55.342Z,1035.4
2017-10-13T09:55:55.339Z,1035.41
2017-10-13T09:56:55.334Z,1035.48
2017-10-13T09:57:55.329Z,1035.49
2017-10-13T09:58:55.327Z,1035.51
2017-10-13T09:59:55.322Z,1035.54
2017-10-13T10:00:55.320Z,1035.51
2017-10-13T10:01:55.313Z,1035.55
2017-10-13T10:02:55.310Z,1035.54
2017-10-13T10:03:55.308Z,1035.55
2017-10-13T10:04:55.303Z,1035.5
2017-10-13T10:05:55.299Z,1035.39
2017-10-13T10:06:55.293Z,1035.35
2017-10-13T10:07:55.290Z,1035.29
2017-10-13T10:08:55.286Z,1035.22
2017-10-13T10:09:55.281Z,1035.12
2017-10-13T10:10:55.279Z,1035.07
2017-10-13T10:11:55.276Z,1035.08
2017-10-13T10:12:55.272Z,1035.01
2017-10-13T10:13:55.280Z,1034.91
2017-10-13T10:14:55.263Z,1034.85
2017-10-13T10:15:55.264Z,1034.82
2017-10-13T10:16:55.261Z,1034.86
2017-10-13T10:17:55.252Z,1034.91
2017-10-13T10:18:55.251Z,1034.86
2017-10-13T10:19:55.247Z,1034.87
2017-10-13T10:20:55.244Z,1034.85
2017-10-13T10:21:55.241Z,1034.83
2017-10-13T10:22:55.236Z,1034.84
2017-10-13T10:23:55.232Z,1034.78
2017-10-13T10:24:55.228Z,1034.69
2017-10-13T10:25:55.231Z,1034.58
2017-10-13T10:26:55.223Z,1034.45
2017-10-13T10:27:55.219Z,1034.36
2017-10-13T10:28:55.214Z,1034.41
2017-10-13T10:29:55.211Z,1034.41
2017-10-13T10:30:55.210Z,1034.47
2017-10-13T10:31:55.212Z,1034.53
2017-10-13T10:32:55.203Z,1034.48
2017-10-13T10:33:55.202Z,1034.48
2017-10-13T10:34:55.194Z,1034.39
2017-10-13T10:35:55.192Z,1034.41
2017-10-13T10:36:55.189Z,1034.3
2017-10-13T10:37:55.186Z,1034.23
2017-10-13T10:38:55.183Z,1034.11
2017-10-13T10:39:55.182Z,1034.09
2017-10-13T10:40:55.180Z,1034.02
2017-10-13T10:41:55.178Z,1033.94
2017-10-13T10:42:55.172Z,1033.81
2017-10-13T10:43:55.169Z,1033.69
2017-10-13T10:44:55.167Z,1033.54
2017-10-13T10:45:55.163Z,1033.44
2017-10-13T10:46:55.162Z,1033.48
2017-10-13T10:47:55.161Z,1033.53
2017-10-13T10:48:55.163Z,1033.51
2017-10-13T10:49:55.154Z,1033.55
2017-10-13T10:50:55.151Z,1033.48
2017-10-13T10:51:55.150Z,1033.56
2017-10-13T10:52:55.153Z,1033.63
2017-10-13T10:53:55.148Z,1033.67
2017-10-13T10:54:55.148Z,1033.55
2017-10-13T10:55:55.140Z,1033.54
2017-10-13T10:56:55.137Z,1033.56
2017-10-13T10:57:55.135Z,1033.46
2017-10-13T10:58:55.135Z,1033.52
2017-10-13T10:59:55.133Z,1033.57
2017-10-13T11:00:55.130Z,1033.67
2017-10-13T11:01:55.136Z,1033.69
2017-10-13T11:02:55.127Z,1033.71
2017-10-13T11:03:55.125Z,1033.71
2017-10-13T11:04:55.121Z,1033.63
2017-10-13T11:05:55.118Z,1033.68
2017-10-13T11:06:55.118Z,1033.85
2017-10-13T11:07:55.118Z,1033.84
2017-10-13T11:08:55.114Z,1033.89
2017-10-13T11:09:55.112Z,1033.99
2017-10-13T11:10:55.109Z,1034.05
2017-10-13T11:11:55.106Z,1034.02
2017-10-13T11:12:55.105Z,1033.99
2017-10-13T11:13:55.103Z,1033.89
2017-10-13T11:14:55.103Z,1033.8
2017-10-13T11:15:55.098Z,1033.81
2017-10-13T11:16:55.097Z,1033.87
2017-10-13T11:17:55.101Z,1033.86
2017-10-13T11:18:55.094Z,1033.84
2017-10-13T11:19:55.091Z,1033.82
2017-10-13T11:20:55.089Z,1033.79
2017-10-13T11:21:55.087Z,1033.79
2017-10-13T11:22:55.084Z,1033.77
2017-10-13T11:23:55.082Z,1033.76
2017-10-13T11:24:55.080Z,1033.69
2017-10-13T11:25:55.077Z,1033.6
2017-10-13T11:26:55.076Z,1033.51
2017-10-13T11:27:55.075Z,1033.46
2017-10-13T11:28:55.072Z,1033.45
2017-10-13T11:29:55.068Z,1033.41
2017-10-13T11:30:55.068Z,1033.42
2017-10-13T11:31:55.064Z,1033.4
2017-10-13T11:32:55.064Z,1033.39
2017-10-13T11:33:55.061Z,1033.51
2017-10-13T11:34:55.060Z,1033.55
2017-10-13T11:35:55.057Z,1033.61
2017-10-13T11:36:55.056Z,1033.66
2017-10-13T11:37:55.054Z,1033.69
2017-10-13T11:38:55.051Z,1033.77
2017-10-13T11:39:55.049Z,1033.86
2017-10-13T11:40:55.047Z,1033.92
2017-10-13T11:41:55.044Z,1033.95
2017-10-13T11:42:55.043Z,1033.96
2017-10-13T11:43:55.043Z,1033.94
2017-10-13T11:44:55.039Z,1033.9
2017-10-13T11:45:55.037Z,1033.76
2017-10-13T11:46:55.036Z,1033.69
2017-10-13T11:47:55.033Z,1033.62
2017-10-13T11:48:55.032Z,1033.67
2017-10-13T11:49:55.030Z,1033.67
2017-10-13T11:50:55.032Z,1033.76
2017-10-13T11:51:55.025Z,1033.82
2017-10-13T11:52:55.022Z,1033.86
2017-10-13T11:53:55.022Z,1033.82
2017-10-13T11:54:55.020Z,1033.85
2017-10-13T11:55:55.017Z,1033.9
2017-10-13T11:56:55.015Z,1033.9
2017-10-13T11:57:55.012Z,1033.83
2017-10-13T11:58:55.010Z,1033.79
2017-10-13T11:59:55.007Z,1033.71
2017-10-13T12:00:55.031Z,1033.65
2017-10-13T12:01:55.003Z,1033.6
2017-10-13T12:02:55.002Z,1033.55
2017-10-13T12:03:55.003Z,1033.5
2017-10-13T12:04:54.999Z,1033.48
2017-10-13T12:05:54.997Z,1033.42
2017-10-13T12:06:54.994Z,1033.36
2017-10-13T12:07:54.991Z,1033.34
2017-10-13T12:08:54.989Z,1033.33